This is the latest recevied weather packets stored in our database for station/object K6MLE. If no packets are shown the sender has not sent any weather packets the latest 10 day(s).
| Time | Temp. | Humidity | Pressure | Rain* | Wind** | Luminosity | Snow |
|---|---|---|---|---|---|---|---|
| 1777720216 | 11.11° C | 93% | 1012.1 hPa | 0 mm | - | - | - |
| 1777715416 | 11.11° C | 93% | 1012.6 hPa | 0 mm | - | - | - |
| 1777710616 | 12.22° C | 92% | 1013.2 hPa | 0 mm | - | - | - |
| 1777709416 | 12.78° C | 92% | 1013.4 hPa | 0 mm | - | - | - |
| 1777707016 | 12.78° C | 92% | 1013.7 hPa | 0 mm | - | - | - |
| 1777702216 | 13.89° C | 89% | 1013.9 hPa | 0 mm | - | - | - |
| 1777698617 | 15° C | 86% | 1013.9 hPa | 0 mm | - | - | - |
| 1777697426 | 15° C | 84% | 1013.7 hPa | 0 mm | - | - | - |
| 1777692017 | 18.33° C | 73% | 1011.7 hPa | 0 mm | - | - | - |
| 1777690818 | 18.89° C | 70% | 1011.5 hPa | 0 mm | - | - | - |
| 1777689618 | 20° C | 67% | 1011.4 hPa | 0 mm | - | - | - |
| 1777687818 | 21.67° C | 59% | 1011.6 hPa | 0 mm | - | - | - |
| 1777684818 | 23.33° C | 54% | 1011.7 hPa | 0 mm | - | - | - |
| 1777680618 | 23.89° C | 43% | 1012.1 hPa | 0 mm | - | - | - |
| 1777678218 | 24.44° C | 45% | 1012.6 hPa | 0 mm | - | - | - |
| 1777677618 | 25° C | 45% | 1012.7 hPa | 0 mm | - | - | - |
| 1777668617 | 24.44° C | 41% | 1014.1 hPa | 0 mm | - | - | - |
| 1777664427 | 25° C | 38% | 1014.5 hPa | 0 mm | - | - | - |
| 1777654237 | 21.11° C | 47% | 1014.9 hPa | 0 mm | - | - | - |
| 1777651821 | 18.33° C | 61% | 1014.5 hPa | 0 mm | - | - | - |
| 1777648217 | 11.67° C | 86% | 1013.9 hPa | 0 mm | - | - | - |
| 1777644637 | 8.89° C | 87% | 1013.4 hPa | 0 mm | - | - | - |
| 1777643418 | 8.33° C | 84% | 1013.4 hPa | 0 mm | - | - | - |
| 1777635617 | 8.33° C | 92% | 1013.3 hPa | 0 mm | - | - | - |
| 1777635017 | 8.33° C | 92% | 1013.4 hPa | 0 mm | - | - | - |
* Rain latest hour (hover to see other rain measurements)
** Current wind speed in m/s (hover to see current wind gust speed)